<?xml version="1.0" encoding="UTF-8" standalone="no" ?>
<gpx xmlns="http://www.topografix.com/GPX/1/1" xmlns:xsi="http://www.w3.org/2001/XMLSchema-instance" xsi:schemaLocation="http://www.topografix.com/GPX/1/1 http://www.topografix.com/GPX/1/1/gpx.xsd" version="1.1" creator="VisuGPX - https://www.visugpx.com">
  <metadata>
    <name>VTT Sud Bourgogne</name>
    <desc><![CDATA[Cluny - Tournus : circuits VTT XC]]></desc>
  </metadata>
  <trk>
    <name><![CDATA[3_le tour de BRANCION BLEU]]></name>
    <extensions>
      <line xmlns="http://www.topografix.com/GPX/gpx_style/0/2">
        <color>0033ff</color>
        <width>4</width>
      </line>
    </extensions>
    <trkseg>
      <trkpt lat="46.54476" lon="4.79895">
        <ele>357</ele>
        <time>2020-09-22T10:16:55Z</time>
      </trkpt>
      <trkpt lat="46.54502" lon="4.79896">
        <ele>360</ele>
        <time>2020-09-22T10:17:01Z</time>
      </trkpt>
      <trkpt lat="46.54464" lon="4.79938">
        <ele>360</ele>
        <time>2020-09-22T10:17:12Z</time>
      </trkpt>
      <trkpt lat="46.5443" lon="4.7998">
        <ele>362</ele>
        <time>2020-09-22T10:17:23Z</time>
      </trkpt>
      <trkpt lat="46.54488" lon="4.80022">
        <ele>366</ele>
        <time>2020-09-22T10:17:38Z</time>
      </trkpt>
      <trkpt lat="46.54524" lon="4.80042">
        <ele>366</ele>
        <time>2020-09-22T10:17:47Z</time>
      </trkpt>
      <trkpt lat="46.54554" lon="4.80054">
        <ele>364</ele>
        <time>2020-09-22T10:17:54Z</time>
      </trkpt>
      <trkpt lat="46.54589" lon="4.80073">
        <ele>361</ele>
        <time>2020-09-22T10:18:03Z</time>
      </trkpt>
      <trkpt lat="46.54638" lon="4.8011">
        <ele>354</ele>
        <time>2020-09-22T10:18:16Z</time>
      </trkpt>
      <trkpt lat="46.5467" lon="4.80139">
        <ele>350</ele>
        <time>2020-09-22T10:18:24Z</time>
      </trkpt>
      <trkpt lat="46.54685" lon="4.80142">
        <ele>348</ele>
        <time>2020-09-22T10:18:28Z</time>
      </trkpt>
      <trkpt lat="46.54699" lon="4.80129">
        <ele>346</ele>
        <time>2020-09-22T10:18:32Z</time>
      </trkpt>
      <trkpt lat="46.54708" lon="4.80109">
        <ele>344</ele>
        <time>2020-09-22T10:18:36Z</time>
      </trkpt>
      <trkpt lat="46.54713" lon="4.8005">
        <ele>342</ele>
        <time>2020-09-22T10:18:45Z</time>
      </trkpt>
      <trkpt lat="46.54732" lon="4.80024">
        <ele>337</ele>
        <time>2020-09-22T10:18:51Z</time>
      </trkpt>
      <trkpt lat="46.54777" lon="4.79986">
        <ele>331</ele>
        <time>2020-09-22T10:19:04Z</time>
      </trkpt>
      <trkpt lat="46.54841" lon="4.79941">
        <ele>323</ele>
        <time>2020-09-22T10:19:20Z</time>
      </trkpt>
      <trkpt lat="46.54905" lon="4.79851">
        <ele>315</ele>
        <time>2020-09-22T10:19:41Z</time>
      </trkpt>
      <trkpt lat="46.54948" lon="4.79828">
        <ele>307</ele>
        <time>2020-09-22T10:19:52Z</time>
      </trkpt>
      <trkpt lat="46.54965" lon="4.79835">
        <ele>304</ele>
        <time>2020-09-22T10:19:56Z</time>
      </trkpt>
      <trkpt lat="46.54971" lon="4.79834">
        <ele>303</ele>
        <time>2020-09-22T10:19:57Z</time>
      </trkpt>
      <trkpt lat="46.54986" lon="4.79821">
        <ele>300</ele>
        <time>2020-09-22T10:20:01Z</time>
      </trkpt>
      <trkpt lat="46.55019" lon="4.79713">
        <ele>288</ele>
        <time>2020-09-22T10:20:20Z</time>
      </trkpt>
      <trkpt lat="46.55058" lon="4.7961">
        <ele>279</ele>
        <time>2020-09-22T10:20:39Z</time>
      </trkpt>
      <trkpt lat="46.55072" lon="4.79563">
        <ele>274</ele>
        <time>2020-09-22T10:20:47Z</time>
      </trkpt>
      <trkpt lat="46.55088" lon="4.79477">
        <ele>266</ele>
        <time>2020-09-22T10:21:02Z</time>
      </trkpt>
      <trkpt lat="46.55084" lon="4.79395">
        <ele>265</ele>
        <time>2020-09-22T10:21:15Z</time>
      </trkpt>
      <trkpt lat="46.5509" lon="4.79368">
        <ele>265</ele>
        <time>2020-09-22T10:21:19Z</time>
      </trkpt>
      <trkpt lat="46.55103" lon="4.79344">
        <ele>265</ele>
        <time>2020-09-22T10:21:24Z</time>
      </trkpt>
      <trkpt lat="46.55159" lon="4.79281">
        <ele>260</ele>
        <time>2020-09-22T10:21:41Z</time>
      </trkpt>
      <trkpt lat="46.55182" lon="4.79246">
        <ele>258</ele>
        <time>2020-09-22T10:21:49Z</time>
      </trkpt>
      <trkpt lat="46.55191" lon="4.79218">
        <ele>258</ele>
        <time>2020-09-22T10:21:54Z</time>
      </trkpt>
      <trkpt lat="46.55195" lon="4.79154">
        <ele>258</ele>
        <time>2020-09-22T10:22:04Z</time>
      </trkpt>
      <trkpt lat="46.55214" lon="4.7914">
        <ele>256</ele>
        <time>2020-09-22T10:22:09Z</time>
      </trkpt>
      <trkpt lat="46.5525" lon="4.79101">
        <ele>252</ele>
        <time>2020-09-22T10:22:19Z</time>
      </trkpt>
      <trkpt lat="46.55268" lon="4.79093">
        <ele>251</ele>
        <time>2020-09-22T10:22:24Z</time>
      </trkpt>
      <trkpt lat="46.5528" lon="4.79093">
        <ele>250</ele>
        <time>2020-09-22T10:22:27Z</time>
      </trkpt>
      <trkpt lat="46.55361" lon="4.79106">
        <ele>245</ele>
        <time>2020-09-22T10:22:46Z</time>
      </trkpt>
      <trkpt lat="46.55375" lon="4.791">
        <ele>245</ele>
        <time>2020-09-22T10:22:49Z</time>
      </trkpt>
      <trkpt lat="46.55389" lon="4.79083">
        <ele>245</ele>
        <time>2020-09-22T10:22:53Z</time>
      </trkpt>
      <trkpt lat="46.55409" lon="4.79045">
        <ele>246</ele>
        <time>2020-09-22T10:23:01Z</time>
      </trkpt>
      <trkpt lat="46.55421" lon="4.79033">
        <ele>247</ele>
        <time>2020-09-22T10:23:04Z</time>
      </trkpt>
      <trkpt lat="46.55441" lon="4.79022">
        <ele>246</ele>
        <time>2020-09-22T10:23:09Z</time>
      </trkpt>
      <trkpt lat="46.55448" lon="4.7902">
        <ele>246</ele>
        <time>2020-09-22T10:23:11Z</time>
      </trkpt>
      <trkpt lat="46.55456" lon="4.79021">
        <ele>245</ele>
        <time>2020-09-22T10:23:13Z</time>
      </trkpt>
      <trkpt lat="46.55483" lon="4.79039">
        <ele>244</ele>
        <time>2020-09-22T10:23:20Z</time>
      </trkpt>
      <trkpt lat="46.55497" lon="4.79042">
        <ele>243</ele>
        <time>2020-09-22T10:23:23Z</time>
      </trkpt>
      <trkpt lat="46.55518" lon="4.79039">
        <ele>244</ele>
        <time>2020-09-22T10:23:28Z</time>
      </trkpt>
      <trkpt lat="46.55556" lon="4.79012">
        <ele>244</ele>
        <time>2020-09-22T10:23:38Z</time>
      </trkpt>
      <trkpt lat="46.55594" lon="4.78964">
        <ele>241</ele>
        <time>2020-09-22T10:23:50Z</time>
      </trkpt>
      <trkpt lat="46.5563" lon="4.78949">
        <ele>240</ele>
        <time>2020-09-22T10:23:58Z</time>
      </trkpt>
      <trkpt lat="46.55686" lon="4.78942">
        <ele>240</ele>
        <time>2020-09-22T10:24:12Z</time>
      </trkpt>
      <trkpt lat="46.55705" lon="4.78945">
        <ele>239</ele>
        <time>2020-09-22T10:24:16Z</time>
      </trkpt>
      <trkpt lat="46.55745" lon="4.78957">
        <ele>239</ele>
        <time>2020-09-22T10:24:26Z</time>
      </trkpt>
      <trkpt lat="46.558" lon="4.78961">
        <ele>240</ele>
        <time>2020-09-22T10:24:38Z</time>
      </trkpt>
      <trkpt lat="46.55808" lon="4.78958">
        <ele>241</ele>
        <time>2020-09-22T10:24:40Z</time>
      </trkpt>
      <trkpt lat="46.55823" lon="4.78947">
        <ele>241</ele>
        <time>2020-09-22T10:24:44Z</time>
      </trkpt>
      <trkpt lat="46.55819" lon="4.78924">
        <ele>240</ele>
        <time>2020-09-22T10:24:48Z</time>
      </trkpt>
      <trkpt lat="46.55817" lon="4.78817">
        <ele>234</ele>
        <time>2020-09-22T10:25:05Z</time>
      </trkpt>
      <trkpt lat="46.55809" lon="4.78723">
        <ele>230</ele>
        <time>2020-09-22T10:25:20Z</time>
      </trkpt>
      <trkpt lat="46.55783" lon="4.78567">
        <ele>224</ele>
        <time>2020-09-22T10:25:46Z</time>
      </trkpt>
      <trkpt lat="46.55787" lon="4.78526">
        <ele>223</ele>
        <time>2020-09-22T10:25:53Z</time>
      </trkpt>
      <trkpt lat="46.55789" lon="4.78381">
        <ele>220</ele>
        <time>2020-09-22T10:26:16Z</time>
      </trkpt>
      <trkpt lat="46.55793" lon="4.78342">
        <ele>220</ele>
        <time>2020-09-22T10:26:22Z</time>
      </trkpt>
      <trkpt lat="46.55785" lon="4.78165">
        <ele>216</ele>
        <time>2020-09-22T10:26:51Z</time>
      </trkpt>
      <trkpt lat="46.5578" lon="4.78114">
        <ele>215</ele>
        <time>2020-09-22T10:26:59Z</time>
      </trkpt>
      <trkpt lat="46.55782" lon="4.78004">
        <ele>213</ele>
        <time>2020-09-22T10:27:17Z</time>
      </trkpt>
      <trkpt lat="46.55856" lon="4.77574">
        <ele>208</ele>
        <time>2020-09-22T10:28:28Z</time>
      </trkpt>
      <trkpt lat="46.5586" lon="4.7757">
        <ele>208</ele>
        <time>2020-09-22T10:28:29Z</time>
      </trkpt>
      <trkpt lat="46.55937" lon="4.77557">
        <ele>207</ele>
        <time>2020-09-22T10:28:47Z</time>
      </trkpt>
      <trkpt lat="46.55943" lon="4.77512">
        <ele>207</ele>
        <time>2020-09-22T10:28:55Z</time>
      </trkpt>
      <trkpt lat="46.55949" lon="4.77386">
        <ele>206</ele>
        <time>2020-09-22T10:29:15Z</time>
      </trkpt>
      <trkpt lat="46.55944" lon="4.77335">
        <ele>206</ele>
        <time>2020-09-22T10:29:23Z</time>
      </trkpt>
      <trkpt lat="46.55946" lon="4.773">
        <ele>206</ele>
        <time>2020-09-22T10:29:29Z</time>
      </trkpt>
      <trkpt lat="46.55942" lon="4.77196">
        <ele>207</ele>
        <time>2020-09-22T10:29:46Z</time>
      </trkpt>
      <trkpt lat="46.55938" lon="4.77166">
        <ele>208</ele>
        <time>2020-09-22T10:29:51Z</time>
      </trkpt>
      <trkpt lat="46.55926" lon="4.77116">
        <ele>210</ele>
        <time>2020-09-22T10:29:59Z</time>
      </trkpt>
      <trkpt lat="46.55911" lon="4.77082">
        <ele>211</ele>
        <time>2020-09-22T10:30:06Z</time>
      </trkpt>
      <trkpt lat="46.55897" lon="4.77061">
        <ele>211</ele>
        <time>2020-09-22T10:30:10Z</time>
      </trkpt>
      <trkpt lat="46.55883" lon="4.77056">
        <ele>211</ele>
        <time>2020-09-22T10:30:14Z</time>
      </trkpt>
      <trkpt lat="46.55817" lon="4.77061">
        <ele>210</ele>
        <time>2020-09-22T10:30:29Z</time>
      </trkpt>
      <trkpt lat="46.55768" lon="4.77069">
        <ele>210</ele>
        <time>2020-09-22T10:30:41Z</time>
      </trkpt>
      <trkpt lat="46.55683" lon="4.77089">
        <ele>210</ele>
        <time>2020-09-22T10:31:01Z</time>
      </trkpt>
      <trkpt lat="46.55651" lon="4.77091">
        <ele>210</ele>
        <time>2020-09-22T10:31:08Z</time>
      </trkpt>
      <trkpt lat="46.55627" lon="4.77087">
        <ele>211</ele>
        <time>2020-09-22T10:31:14Z</time>
      </trkpt>
      <trkpt lat="46.55506" lon="4.77049">
        <ele>215</ele>
        <time>2020-09-22T10:31:43Z</time>
      </trkpt>
      <trkpt lat="46.55421" lon="4.76998">
        <ele>217</ele>
        <time>2020-09-22T10:32:04Z</time>
      </trkpt>
      <trkpt lat="46.55407" lon="4.77">
        <ele>217</ele>
        <time>2020-09-22T10:32:07Z</time>
      </trkpt>
      <trkpt lat="46.55375" lon="4.77017">
        <ele>215</ele>
        <time>2020-09-22T10:32:15Z</time>
      </trkpt>
      <trkpt lat="46.55324" lon="4.77036">
        <ele>214</ele>
        <time>2020-09-22T10:32:28Z</time>
      </trkpt>
      <trkpt lat="46.55289" lon="4.7704">
        <ele>213</ele>
        <time>2020-09-22T10:32:36Z</time>
      </trkpt>
      <trkpt lat="46.55283" lon="4.77044">
        <ele>213</ele>
        <time>2020-09-22T10:32:37Z</time>
      </trkpt>
      <trkpt lat="46.55281" lon="4.77049">
        <ele>213</ele>
        <time>2020-09-22T10:32:38Z</time>
      </trkpt>
      <trkpt lat="46.55281" lon="4.77082">
        <ele>211</ele>
        <time>2020-09-22T10:32:44Z</time>
      </trkpt>
      <trkpt lat="46.55278" lon="4.77106">
        <ele>211</ele>
        <time>2020-09-22T10:32:48Z</time>
      </trkpt>
      <trkpt lat="46.55139" lon="4.77573">
        <ele>216</ele>
        <time>2020-09-22T10:34:09Z</time>
      </trkpt>
      <trkpt lat="46.55078" lon="4.77766">
        <ele>226</ele>
        <time>2020-09-22T10:34:43Z</time>
      </trkpt>
      <trkpt lat="46.55056" lon="4.77841">
        <ele>229</ele>
        <time>2020-09-22T10:34:56Z</time>
      </trkpt>
      <trkpt lat="46.55033" lon="4.7796">
        <ele>230</ele>
        <time>2020-09-22T10:35:16Z</time>
      </trkpt>
      <trkpt lat="46.55003" lon="4.78042">
        <ele>230</ele>
        <time>2020-09-22T10:35:31Z</time>
      </trkpt>
      <trkpt lat="46.55" lon="4.78086">
        <ele>230</ele>
        <time>2020-09-22T10:35:38Z</time>
      </trkpt>
      <trkpt lat="46.55014" lon="4.78226">
        <ele>231</ele>
        <time>2020-09-22T10:36:01Z</time>
      </trkpt>
      <trkpt lat="46.54993" lon="4.78319">
        <ele>237</ele>
        <time>2020-09-22T10:36:17Z</time>
      </trkpt>
      <trkpt lat="46.54971" lon="4.78396">
        <ele>244</ele>
        <time>2020-09-22T10:36:30Z</time>
      </trkpt>
      <trkpt lat="46.54961" lon="4.78475">
        <ele>251</ele>
        <time>2020-09-22T10:36:43Z</time>
      </trkpt>
      <trkpt lat="46.54944" lon="4.78536">
        <ele>258</ele>
        <time>2020-09-22T10:36:54Z</time>
      </trkpt>
      <trkpt lat="46.54943" lon="4.78556">
        <ele>260</ele>
        <time>2020-09-22T10:36:57Z</time>
      </trkpt>
      <trkpt lat="46.54954" lon="4.78606">
        <ele>265</ele>
        <time>2020-09-22T10:37:05Z</time>
      </trkpt>
      <trkpt lat="46.54959" lon="4.7865">
        <ele>267</ele>
        <time>2020-09-22T10:37:12Z</time>
      </trkpt>
      <trkpt lat="46.54959" lon="4.78665">
        <ele>268</ele>
        <time>2020-09-22T10:37:15Z</time>
      </trkpt>
      <trkpt lat="46.54953" lon="4.78701">
        <ele>270</ele>
        <time>2020-09-22T10:37:21Z</time>
      </trkpt>
      <trkpt lat="46.54954" lon="4.78717">
        <ele>270</ele>
        <time>2020-09-22T10:37:23Z</time>
      </trkpt>
      <trkpt lat="46.54945" lon="4.78718">
        <ele>271</ele>
        <time>2020-09-22T10:37:26Z</time>
      </trkpt>
      <trkpt lat="46.54911" lon="4.78704">
        <ele>274</ele>
        <time>2020-09-22T10:37:34Z</time>
      </trkpt>
      <trkpt lat="46.54892" lon="4.787">
        <ele>276</ele>
        <time>2020-09-22T10:37:38Z</time>
      </trkpt>
      <trkpt lat="46.54878" lon="4.78705">
        <ele>277</ele>
        <time>2020-09-22T10:37:42Z</time>
      </trkpt>
      <trkpt lat="46.54865" lon="4.7872">
        <ele>278</ele>
        <time>2020-09-22T10:37:46Z</time>
      </trkpt>
      <trkpt lat="46.54805" lon="4.7883">
        <ele>282</ele>
        <time>2020-09-22T10:38:08Z</time>
      </trkpt>
      <trkpt lat="46.54787" lon="4.78872">
        <ele>283</ele>
        <time>2020-09-22T10:38:16Z</time>
      </trkpt>
      <trkpt lat="46.5471" lon="4.79016">
        <ele>292</ele>
        <time>2020-09-22T10:38:45Z</time>
      </trkpt>
      <trkpt lat="46.54695" lon="4.79052">
        <ele>295</ele>
        <time>2020-09-22T10:38:52Z</time>
      </trkpt>
      <trkpt lat="46.54675" lon="4.79134">
        <ele>299</ele>
        <time>2020-09-22T10:39:06Z</time>
      </trkpt>
      <trkpt lat="46.54654" lon="4.79236">
        <ele>306</ele>
        <time>2020-09-22T10:39:23Z</time>
      </trkpt>
      <trkpt lat="46.54604" lon="4.79384">
        <ele>321</ele>
        <time>2020-09-22T10:39:50Z</time>
      </trkpt>
      <trkpt lat="46.5458" lon="4.795">
        <ele>324</ele>
        <time>2020-09-22T10:40:09Z</time>
      </trkpt>
      <trkpt lat="46.54567" lon="4.79576">
        <ele>331</ele>
        <time>2020-09-22T10:40:22Z</time>
      </trkpt>
      <trkpt lat="46.54563" lon="4.7964">
        <ele>332</ele>
        <time>2020-09-22T10:40:32Z</time>
      </trkpt>
      <trkpt lat="46.54558" lon="4.79661">
        <ele>333</ele>
        <time>2020-09-22T10:40:36Z</time>
      </trkpt>
      <trkpt lat="46.54547" lon="4.79683">
        <ele>335</ele>
        <time>2020-09-22T10:40:40Z</time>
      </trkpt>
      <trkpt lat="46.54515" lon="4.79727">
        <ele>336</ele>
        <time>2020-09-22T10:40:50Z</time>
      </trkpt>
      <trkpt lat="46.54506" lon="4.79744">
        <ele>335</ele>
        <time>2020-09-22T10:40:54Z</time>
      </trkpt>
      <trkpt lat="46.54502" lon="4.79734">
        <ele>335</ele>
        <time>2020-09-22T10:40:55Z</time>
      </trkpt>
      <trkpt lat="46.54482" lon="4.7971">
        <ele>339</ele>
        <time>2020-09-22T10:41:02Z</time>
      </trkpt>
      <trkpt lat="46.54455" lon="4.79694">
        <ele>346</ele>
        <time>2020-09-22T10:41:08Z</time>
      </trkpt>
      <trkpt lat="46.5445" lon="4.79584">
        <ele>360</ele>
        <time>2020-09-22T10:41:26Z</time>
      </trkpt>
      <trkpt lat="46.54437" lon="4.79541">
        <ele>367</ele>
        <time>2020-09-22T10:41:34Z</time>
      </trkpt>
      <trkpt lat="46.54401" lon="4.79457">
        <ele>384</ele>
        <time>2020-09-22T10:41:50Z</time>
      </trkpt>
      <trkpt lat="46.5436" lon="4.794">
        <ele>395</ele>
        <time>2020-09-22T10:42:03Z</time>
      </trkpt>
      <trkpt lat="46.54345" lon="4.79385">
        <ele>398</ele>
        <time>2020-09-22T10:42:07Z</time>
      </trkpt>
      <trkpt lat="46.54325" lon="4.79373">
        <ele>400</ele>
        <time>2020-09-22T10:42:12Z</time>
      </trkpt>
      <trkpt lat="46.54266" lon="4.79353">
        <ele>405</ele>
        <time>2020-09-22T10:42:26Z</time>
      </trkpt>
      <trkpt lat="46.54171" lon="4.79302">
        <ele>406</ele>
        <time>2020-09-22T10:42:50Z</time>
      </trkpt>
      <trkpt lat="46.54097" lon="4.79278">
        <ele>408</ele>
        <time>2020-09-22T10:43:08Z</time>
      </trkpt>
      <trkpt lat="46.54084" lon="4.79271">
        <ele>408</ele>
        <time>2020-09-22T10:43:11Z</time>
      </trkpt>
      <trkpt lat="46.54052" lon="4.7926">
        <ele>409</ele>
        <time>2020-09-22T10:43:18Z</time>
      </trkpt>
      <trkpt lat="46.54016" lon="4.79257">
        <ele>411</ele>
        <time>2020-09-22T10:43:27Z</time>
      </trkpt>
      <trkpt lat="46.53972" lon="4.79247">
        <ele>410</ele>
        <time>2020-09-22T10:43:37Z</time>
      </trkpt>
      <trkpt lat="46.5394" lon="4.79235">
        <ele>407</ele>
        <time>2020-09-22T10:43:45Z</time>
      </trkpt>
      <trkpt lat="46.53917" lon="4.79231">
        <ele>406</ele>
        <time>2020-09-22T10:43:50Z</time>
      </trkpt>
      <trkpt lat="46.53901" lon="4.79231">
        <ele>406</ele>
        <time>2020-09-22T10:43:54Z</time>
      </trkpt>
      <trkpt lat="46.5389" lon="4.79236">
        <ele>407</ele>
        <time>2020-09-22T10:43:57Z</time>
      </trkpt>
      <trkpt lat="46.53869" lon="4.79251">
        <ele>409</ele>
        <time>2020-09-22T10:44:02Z</time>
      </trkpt>
      <trkpt lat="46.53859" lon="4.79255">
        <ele>409</ele>
        <time>2020-09-22T10:44:05Z</time>
      </trkpt>
      <trkpt lat="46.53828" lon="4.79261">
        <ele>410</ele>
        <time>2020-09-22T10:44:12Z</time>
      </trkpt>
      <trkpt lat="46.53821" lon="4.79265">
        <ele>410</ele>
        <time>2020-09-22T10:44:14Z</time>
      </trkpt>
      <trkpt lat="46.53807" lon="4.79278">
        <ele>410</ele>
        <time>2020-09-22T10:44:18Z</time>
      </trkpt>
      <trkpt lat="46.53792" lon="4.79305">
        <ele>411</ele>
        <time>2020-09-22T10:44:23Z</time>
      </trkpt>
      <trkpt lat="46.53763" lon="4.79316">
        <ele>410</ele>
        <time>2020-09-22T10:44:30Z</time>
      </trkpt>
      <trkpt lat="46.5374" lon="4.79328">
        <ele>409</ele>
        <time>2020-09-22T10:44:36Z</time>
      </trkpt>
      <trkpt lat="46.53708" lon="4.79333">
        <ele>408</ele>
        <time>2020-09-22T10:44:43Z</time>
      </trkpt>
      <trkpt lat="46.53688" lon="4.79332">
        <ele>407</ele>
        <time>2020-09-22T10:44:48Z</time>
      </trkpt>
      <trkpt lat="46.53636" lon="4.79336">
        <ele>404</ele>
        <time>2020-09-22T10:45:00Z</time>
      </trkpt>
      <trkpt lat="46.53626" lon="4.79339">
        <ele>403</ele>
        <time>2020-09-22T10:45:03Z</time>
      </trkpt>
      <trkpt lat="46.53612" lon="4.79351">
        <ele>400</ele>
        <time>2020-09-22T10:45:06Z</time>
      </trkpt>
      <trkpt lat="46.53576" lon="4.79326">
        <ele>403</ele>
        <time>2020-09-22T10:45:16Z</time>
      </trkpt>
      <trkpt lat="46.5352" lon="4.79278">
        <ele>405</ele>
        <time>2020-09-22T10:45:31Z</time>
      </trkpt>
      <trkpt lat="46.53507" lon="4.79264">
        <ele>406</ele>
        <time>2020-09-22T10:45:35Z</time>
      </trkpt>
      <trkpt lat="46.53445" lon="4.79159">
        <ele>409</ele>
        <time>2020-09-22T10:45:57Z</time>
      </trkpt>
      <trkpt lat="46.53423" lon="4.79127">
        <ele>407</ele>
        <time>2020-09-22T10:46:04Z</time>
      </trkpt>
      <trkpt lat="46.53399" lon="4.79114">
        <ele>406</ele>
        <time>2020-09-22T10:46:10Z</time>
      </trkpt>
      <trkpt lat="46.53349" lon="4.79093">
        <ele>405</ele>
        <time>2020-09-22T10:46:22Z</time>
      </trkpt>
      <trkpt lat="46.53335" lon="4.79084">
        <ele>405</ele>
        <time>2020-09-22T10:46:26Z</time>
      </trkpt>
      <trkpt lat="46.53291" lon="4.79133">
        <ele>403</ele>
        <time>2020-09-22T10:46:39Z</time>
      </trkpt>
      <trkpt lat="46.53249" lon="4.79192">
        <ele>395</ele>
        <time>2020-09-22T10:46:53Z</time>
      </trkpt>
      <trkpt lat="46.53225" lon="4.79218">
        <ele>389</ele>
        <time>2020-09-22T10:47:00Z</time>
      </trkpt>
      <trkpt lat="46.53192" lon="4.79241">
        <ele>383</ele>
        <time>2020-09-22T10:47:08Z</time>
      </trkpt>
      <trkpt lat="46.53178" lon="4.79245">
        <ele>381</ele>
        <time>2020-09-22T10:47:11Z</time>
      </trkpt>
      <trkpt lat="46.53149" lon="4.79247">
        <ele>380</ele>
        <time>2020-09-22T10:47:18Z</time>
      </trkpt>
      <trkpt lat="46.53116" lon="4.79261">
        <ele>377</ele>
        <time>2020-09-22T10:47:26Z</time>
      </trkpt>
      <trkpt lat="46.5308" lon="4.7927">
        <ele>376</ele>
        <time>2020-09-22T10:47:35Z</time>
      </trkpt>
      <trkpt lat="46.53073" lon="4.79274">
        <ele>376</ele>
        <time>2020-09-22T10:47:37Z</time>
      </trkpt>
      <trkpt lat="46.53062" lon="4.79288">
        <ele>375</ele>
        <time>2020-09-22T10:47:40Z</time>
      </trkpt>
      <trkpt lat="46.53057" lon="4.79299">
        <ele>373</ele>
        <time>2020-09-22T10:47:42Z</time>
      </trkpt>
      <trkpt lat="46.53053" lon="4.79315">
        <ele>371</ele>
        <time>2020-09-22T10:47:45Z</time>
      </trkpt>
      <trkpt lat="46.53054" lon="4.79333">
        <ele>368</ele>
        <time>2020-09-22T10:47:48Z</time>
      </trkpt>
      <trkpt lat="46.5313" lon="4.79431">
        <ele>349</ele>
        <time>2020-09-22T10:48:11Z</time>
      </trkpt>
      <trkpt lat="46.53166" lon="4.79484">
        <ele>339</ele>
        <time>2020-09-22T10:48:23Z</time>
      </trkpt>
      <trkpt lat="46.53191" lon="4.79515">
        <ele>335</ele>
        <time>2020-09-22T10:48:31Z</time>
      </trkpt>
      <trkpt lat="46.53206" lon="4.79542">
        <ele>332</ele>
        <time>2020-09-22T10:48:37Z</time>
      </trkpt>
      <trkpt lat="46.53212" lon="4.79568">
        <ele>329</ele>
        <time>2020-09-22T10:48:41Z</time>
      </trkpt>
      <trkpt lat="46.53214" lon="4.79603">
        <ele>325</ele>
        <time>2020-09-22T10:48:47Z</time>
      </trkpt>
      <trkpt lat="46.5321" lon="4.7961">
        <ele>325</ele>
        <time>2020-09-22T10:48:48Z</time>
      </trkpt>
      <trkpt lat="46.53205" lon="4.79637">
        <ele>322</ele>
        <time>2020-09-22T10:48:53Z</time>
      </trkpt>
      <trkpt lat="46.53213" lon="4.79729">
        <ele>313</ele>
        <time>2020-09-22T10:49:08Z</time>
      </trkpt>
      <trkpt lat="46.53226" lon="4.79791">
        <ele>308</ele>
        <time>2020-09-22T10:49:18Z</time>
      </trkpt>
      <trkpt lat="46.53226" lon="4.79823">
        <ele>306</ele>
        <time>2020-09-22T10:49:23Z</time>
      </trkpt>
      <trkpt lat="46.53222" lon="4.79864">
        <ele>303</ele>
        <time>2020-09-22T10:49:30Z</time>
      </trkpt>
      <trkpt lat="46.53202" lon="4.79939">
        <ele>298</ele>
        <time>2020-09-22T10:49:43Z</time>
      </trkpt>
      <trkpt lat="46.53196" lon="4.79978">
        <ele>297</ele>
        <time>2020-09-22T10:49:49Z</time>
      </trkpt>
      <trkpt lat="46.53191" lon="4.80056">
        <ele>294</ele>
        <time>2020-09-22T10:50:02Z</time>
      </trkpt>
      <trkpt lat="46.53193" lon="4.80085">
        <ele>294</ele>
        <time>2020-09-22T10:50:06Z</time>
      </trkpt>
      <trkpt lat="46.53201" lon="4.80137">
        <ele>293</ele>
        <time>2020-09-22T10:50:15Z</time>
      </trkpt>
      <trkpt lat="46.53194" lon="4.80177">
        <ele>292</ele>
        <time>2020-09-22T10:50:22Z</time>
      </trkpt>
      <trkpt lat="46.53196" lon="4.80178">
        <ele>292</ele>
        <time>2020-09-22T10:50:22Z</time>
      </trkpt>
      <trkpt lat="46.53246" lon="4.80188">
        <ele>292</ele>
        <time>2020-09-22T10:50:34Z</time>
      </trkpt>
      <trkpt lat="46.53261" lon="4.80189">
        <ele>293</ele>
        <time>2020-09-22T10:50:37Z</time>
      </trkpt>
      <trkpt lat="46.53309" lon="4.80211">
        <ele>296</ele>
        <time>2020-09-22T10:50:49Z</time>
      </trkpt>
      <trkpt lat="46.53326" lon="4.80164">
        <ele>296</ele>
        <time>2020-09-22T10:50:58Z</time>
      </trkpt>
      <trkpt lat="46.53324" lon="4.80128">
        <ele>295</ele>
        <time>2020-09-22T10:51:03Z</time>
      </trkpt>
      <trkpt lat="46.53327" lon="4.80116">
        <ele>295</ele>
        <time>2020-09-22T10:51:05Z</time>
      </trkpt>
      <trkpt lat="46.53345" lon="4.80096">
        <ele>295</ele>
        <time>2020-09-22T10:51:11Z</time>
      </trkpt>
      <trkpt lat="46.53386" lon="4.80065">
        <ele>297</ele>
        <time>2020-09-22T10:51:22Z</time>
      </trkpt>
      <trkpt lat="46.53435" lon="4.80036">
        <ele>301</ele>
        <time>2020-09-22T10:51:34Z</time>
      </trkpt>
      <trkpt lat="46.53449" lon="4.8003">
        <ele>302</ele>
        <time>2020-09-22T10:51:37Z</time>
      </trkpt>
      <trkpt lat="46.53465" lon="4.80026">
        <ele>303</ele>
        <time>2020-09-22T10:51:41Z</time>
      </trkpt>
      <trkpt lat="46.53489" lon="4.80025">
        <ele>304</ele>
        <time>2020-09-22T10:51:47Z</time>
      </trkpt>
      <trkpt lat="46.53551" lon="4.80037">
        <ele>308</ele>
        <time>2020-09-22T10:52:01Z</time>
      </trkpt>
      <trkpt lat="46.53561" lon="4.80036">
        <ele>309</ele>
        <time>2020-09-22T10:52:04Z</time>
      </trkpt>
      <trkpt lat="46.53602" lon="4.80023">
        <ele>312</ele>
        <time>2020-09-22T10:52:13Z</time>
      </trkpt>
      <trkpt lat="46.53619" lon="4.80011">
        <ele>314</ele>
        <time>2020-09-22T10:52:18Z</time>
      </trkpt>
      <trkpt lat="46.53623" lon="4.80005">
        <ele>314</ele>
        <time>2020-09-22T10:52:19Z</time>
      </trkpt>
      <trkpt lat="46.53676" lon="4.80028">
        <ele>318</ele>
        <time>2020-09-22T10:52:32Z</time>
      </trkpt>
      <trkpt lat="46.53823" lon="4.80083">
        <ele>327</ele>
        <time>2020-09-22T10:53:08Z</time>
      </trkpt>
      <trkpt lat="46.53943" lon="4.80131">
        <ele>334</ele>
        <time>2020-09-22T10:53:37Z</time>
      </trkpt>
      <trkpt lat="46.54019" lon="4.80225">
        <ele>339</ele>
        <time>2020-09-22T10:54:00Z</time>
      </trkpt>
      <trkpt lat="46.54032" lon="4.80247">
        <ele>340</ele>
        <time>2020-09-22T10:54:05Z</time>
      </trkpt>
      <trkpt lat="46.5405" lon="4.80237">
        <ele>341</ele>
        <time>2020-09-22T10:54:09Z</time>
      </trkpt>
      <trkpt lat="46.54059" lon="4.80229">
        <ele>343</ele>
        <time>2020-09-22T10:54:12Z</time>
      </trkpt>
      <trkpt lat="46.54065" lon="4.80222">
        <ele>344</ele>
        <time>2020-09-22T10:54:13Z</time>
      </trkpt>
      <trkpt lat="46.5407" lon="4.80209">
        <ele>345</ele>
        <time>2020-09-22T10:54:16Z</time>
      </trkpt>
      <trkpt lat="46.5407" lon="4.80191">
        <ele>346</ele>
        <time>2020-09-22T10:54:19Z</time>
      </trkpt>
      <trkpt lat="46.5406" lon="4.80155">
        <ele>346</ele>
        <time>2020-09-22T10:54:25Z</time>
      </trkpt>
      <trkpt lat="46.54058" lon="4.80081">
        <ele>349</ele>
        <time>2020-09-22T10:54:37Z</time>
      </trkpt>
      <trkpt lat="46.5407" lon="4.80088">
        <ele>350</ele>
        <time>2020-09-22T10:54:40Z</time>
      </trkpt>
      <trkpt lat="46.54085" lon="4.80093">
        <ele>352</ele>
        <time>2020-09-22T10:54:43Z</time>
      </trkpt>
      <trkpt lat="46.54101" lon="4.80091">
        <ele>353</ele>
        <time>2020-09-22T10:54:47Z</time>
      </trkpt>
      <trkpt lat="46.54109" lon="4.80087">
        <ele>353</ele>
        <time>2020-09-22T10:54:49Z</time>
      </trkpt>
      <trkpt lat="46.5414" lon="4.80054">
        <ele>354</ele>
        <time>2020-09-22T10:54:58Z</time>
      </trkpt>
      <trkpt lat="46.54151" lon="4.80075">
        <ele>354</ele>
        <time>2020-09-22T10:55:02Z</time>
      </trkpt>
      <trkpt lat="46.54157" lon="4.80081">
        <ele>355</ele>
        <time>2020-09-22T10:55:04Z</time>
      </trkpt>
      <trkpt lat="46.54178" lon="4.80078">
        <ele>356</ele>
        <time>2020-09-22T10:55:09Z</time>
      </trkpt>
      <trkpt lat="46.54277" lon="4.80045">
        <ele>359</ele>
        <time>2020-09-22T10:55:33Z</time>
      </trkpt>
      <trkpt lat="46.54317" lon="4.80022">
        <ele>359</ele>
        <time>2020-09-22T10:55:43Z</time>
      </trkpt>
      <trkpt lat="46.54338" lon="4.80014">
        <ele>360</ele>
        <time>2020-09-22T10:55:48Z</time>
      </trkpt>
      <trkpt lat="46.5441" lon="4.79995">
        <ele>363</ele>
        <time>2020-09-22T10:56:05Z</time>
      </trkpt>
      <trkpt lat="46.54419" lon="4.7999">
        <ele>363</ele>
        <time>2020-09-22T10:56:07Z</time>
      </trkpt>
      <trkpt lat="46.54436" lon="4.79972">
        <ele>361</ele>
        <time>2020-09-22T10:56:12Z</time>
      </trkpt>
      <trkpt lat="46.54436" lon="4.79957">
        <ele>360</ele>
        <time>2020-09-22T10:56:14Z</time>
      </trkpt>
      <trkpt lat="46.5444" lon="4.79949">
        <ele>359</ele>
        <time>2020-09-22T10:56:16Z</time>
      </trkpt>
      <trkpt lat="46.54465" lon="4.79918">
        <ele>359</ele>
        <time>2020-09-22T10:56:24Z</time>
      </trkpt>
      <trkpt lat="46.54467" lon="4.79911">
        <ele>359</ele>
        <time>2020-09-22T10:56:25Z</time>
      </trkpt>
      <trkpt lat="46.54461" lon="4.79897">
        <ele>356</ele>
        <time>2020-09-22T10:56:28Z</time>
      </trkpt>
      <trkpt lat="46.54476" lon="4.79895">
        <ele>357</ele>
        <time>2020-09-22T10:56:31Z</time>
      </trkpt>
    </trkseg>
  </trk>
</gpx>